sensor_id;sensor_type;location;lat;lon;timestamp;pressure;altitude;pressure_sealevel;temperature;humidity
62712;BME280;48772;55.586;37.730;2023-05-19T00:02:16;99818.59;;;18.05;100.00
62712;BME280;48772;55.586;37.730;2023-05-19T00:04:45;99780.09;;;17.79;100.00
62712;BME280;48772;55.586;37.730;2023-05-19T00:07:16;99806.78;;;17.90;100.00
62712;BME280;48772;55.586;37.730;2023-05-19T00:09:42;99817.25;;;17.93;100.00
62712;BME280;48772;55.586;37.730;2023-05-19T00:12:09;99792.94;;;17.77;100.00
62712;BME280;48772;55.586;37.730;2023-05-19T00:14:35;99820.41;;;17.80;100.00
62712;BME280;48772;55.586;37.730;2023-05-19T00:17:01;99833.91;;;17.88;100.00
62712;BME280;48772;55.586;37.730;2023-05-19T00:19:27;99831.53;;;17.85;100.00
62712;BME280;48772;55.586;37.730;2023-05-19T00:21:57;99839.13;;;17.82;100.00
62712;BME280;48772;55.586;37.730;2023-05-19T00:24:23;99834.69;;;17.73;100.00
62712;BME280;48772;55.586;37.730;2023-05-19T00:26:49;99832.53;;;17.76;100.00
62712;BME280;48772;55.586;37.730;2023-05-19T00:29:15;99824.06;;;17.63;100.00
62712;BME280;48772;55.586;37.730;2023-05-19T00:31:44;99828.63;;;17.63;100.00
62712;BME280;48772;55.586;37.730;2023-05-19T00:34:10;99843.63;;;17.65;100.00
62712;BME280;48772;55.586;37.730;2023-05-19T00:36:36;99835.50;;;17.57;100.00
62712;BME280;48772;55.586;37.730;2023-05-19T00:39:02;99851.56;;;17.67;100.00
62712;BME280;48772;55.586;37.730;2023-05-19T00:41:28;99837.00;;;17.52;100.00
62712;BME280;48772;55.586;37.730;2023-05-19T00:43:54;99835.97;;;17.45;100.00
62712;BME280;48772;55.586;37.730;2023-05-19T00:46:20;99858.25;;;17.55;100.00
62712;BME280;48772;55.586;37.730;2023-05-19T00:48:47;99845.56;;;17.47;100.00
62712;BME280;48772;55.586;37.730;2023-05-19T00:51:14;99856.69;;;17.44;100.00
62712;BME280;48772;55.586;37.730;2023-05-19T00:53:42;99859.75;;;17.49;100.00
62712;BME280;48772;55.586;37.730;2023-05-19T00:56:13;99845.22;;;17.42;100.00
62712;BME280;48772;55.586;37.730;2023-05-19T00:58:41;99850.97;;;17.47;100.00
62712;BME280;48772;55.586;37.730;2023-05-19T01:01:07;99848.75;;;17.43;100.00
62712;BME280;48772;55.586;37.730;2023-05-19T01:03:34;99852.25;;;17.35;100.00
62712;BME280;48772;55.586;37.730;2023-05-19T01:06:02;99827.22;;;17.17;100.00
62712;BME280;48772;55.586;37.730;2023-05-19T01:08:33;99860.06;;;17.21;100.00
62712;BME280;48772;55.586;37.730;2023-05-19T01:11:01;99837.56;;;17.04;100.00
62712;BME280;48772;55.586;37.730;2023-05-19T01:13:28;99868.41;;;17.10;100.00
62712;BME280;48772;55.586;37.730;2023-05-19T01:18:31;99851.94;;;16.87;100.00
62712;BME280;48772;55.586;37.730;2023-05-19T01:27:12;99871.28;;;16.83;100.00
62712;BME280;48772;55.586;37.730;2023-05-19T01:32:21;99879.13;;;16.76;100.00
62712;BME280;48772;55.586;37.730;2023-05-19T01:34:49;99858.66;;;16.66;100.00
62712;BME280;48772;55.586;37.730;2023-05-19T01:37:16;99874.44;;;16.78;100.00
62712;BME280;48772;55.586;37.730;2023-05-19T01:39:43;99875.22;;;16.71;100.00
62712;BME280;48772;55.586;37.730;2023-05-19T01:42:09;99859.22;;;16.52;100.00
62712;BME280;48772;55.586;37.730;2023-05-19T01:44:36;99884.84;;;16.56;100.00
62712;BME280;48772;55.586;37.730;2023-05-19T01:47:03;99862.06;;;16.32;100.00
62712;BME280;48772;55.586;37.730;2023-05-19T01:49:29;99846.84;;;16.23;100.00
62712;BME280;48772;55.586;37.730;2023-05-19T01:51:55;99888.22;;;16.40;100.00
62712;BME280;48772;55.586;37.730;2023-05-19T01:54:21;99879.88;;;16.33;100.00
62712;BME280;48772;55.586;37.730;2023-05-19T01:56:59;99868.38;;;16.23;100.00
62712;BME280;48772;55.586;37.730;2023-05-19T01:59:56;99875.66;;;16.13;100.00
62712;BME280;48772;55.586;37.730;2023-05-19T02:02:37;99882.81;;;16.22;100.00
62712;BME280;48772;55.586;37.730;2023-05-19T02:05:14;99869.03;;;16.08;100.00
62712;BME280;48772;55.586;37.730;2023-05-19T02:07:58;99894.28;;;16.24;100.00
62712;BME280;48772;55.586;37.730;2023-05-19T02:10:28;99894.72;;;16.20;100.00
62712;BME280;48772;55.586;37.730;2023-05-19T02:13:00;99909.97;;;16.29;100.00
62712;BME280;48772;55.586;37.730;2023-05-19T02:15:34;99891.59;;;16.24;100.00
62712;BME280;48772;55.586;37.730;2023-05-19T02:18:03;99880.88;;;16.15;100.00
62712;BME280;48772;55.586;37.730;2023-05-19T02:20:30;99902.88;;;16.28;100.00
62712;BME280;48772;55.586;37.730;2023-05-19T02:22:56;99851.88;;;15.91;100.00
62712;BME280;48772;55.586;37.730;2023-05-19T02:25:22;99902.94;;;16.18;100.00
62712;BME280;48772;55.586;37.730;2023-05-19T02:27:50;99900.88;;;16.12;100.00
62712;BME280;48772;55.586;37.730;2023-05-19T02:30:16;99903.50;;;16.04;100.00
62712;BME280;48772;55.586;37.730;2023-05-19T02:32:41;99910.25;;;15.81;100.00
62712;BME280;48772;55.586;37.730;2023-05-19T02:35:12;99903.53;;;15.68;100.00
62712;BME280;48772;55.586;37.730;2023-05-19T02:37:39;99910.22;;;15.64;100.00
62712;BME280;48772;55.586;37.730;2023-05-19T02:40:06;99907.88;;;15.51;100.00
62712;BME280;48772;55.586;37.730;2023-05-19T02:42:32;99915.25;;;15.49;100.00
62712;BME280;48772;55.586;37.730;2023-05-19T02:44:59;99912.13;;;15.35;100.00
62712;BME280;48772;55.586;37.730;2023-05-19T02:47:25;99935.06;;;15.39;100.00
62712;BME280;48772;55.586;37.730;2023-05-19T02:49:51;99935.06;;;15.29;100.00
62712;BME280;48772;55.586;37.730;2023-05-19T02:52:17;99940.59;;;15.18;100.00
62712;BME280;48772;55.586;37.730;2023-05-19T02:54:43;99940.78;;;14.98;100.00
62712;BME280;48772;55.586;37.730;2023-05-19T02:57:09;99935.56;;;14.87;100.00
62712;BME280;48772;55.586;37.730;2023-05-19T02:59:35;99945.47;;;14.77;100.00
62712;BME280;48772;55.586;37.730;2023-05-19T03:02:02;99923.75;;;14.51;100.00
62712;BME280;48772;55.586;37.730;2023-05-19T03:04:28;99935.16;;;14.53;100.00
62712;BME280;48772;55.586;37.730;2023-05-19T03:06:56;99957.34;;;14.55;100.00
62712;BME280;48772;55.586;37.730;2023-05-19T03:09:24;99953.25;;;14.51;100.00
62712;BME280;48772;55.586;37.730;2023-05-19T03:11:50;99944.63;;;14.48;100.00
62712;BME280;48772;55.586;37.730;2023-05-19T03:14:16;99964.28;;;14.67;100.00
62712;BME280;48772;55.586;37.730;2023-05-19T03:16:43;99968.22;;;14.73;100.00
62712;BME280;48772;55.586;37.730;2023-05-19T03:19:09;99960.72;;;14.67;100.00
62712;BME280;48772;55.586;37.730;2023-05-19T03:21:35;99963.41;;;14.67;100.00
62712;BME280;48772;55.586;37.730;2023-05-19T03:24:01;99960.31;;;14.62;100.00
62712;BME280;48772;55.586;37.730;2023-05-19T03:26:27;99963.41;;;14.57;100.00
62712;BME280;48772;55.586;37.730;2023-05-19T03:28:55;99968.22;;;14.54;100.00
62712;BME280;48772;55.586;37.730;2023-05-19T03:31:21;99942.78;;;14.39;100.00
62712;BME280;48772;55.586;37.730;2023-05-19T03:33:47;99959.16;;;14.26;100.00
62712;BME280;48772;55.586;37.730;2023-05-19T03:36:13;99971.03;;;14.33;100.00
62712;BME280;48772;55.586;37.730;2023-05-19T03:38:39;99953.78;;;14.26;100.00
62712;BME280;48772;55.586;37.730;2023-05-19T03:41:05;99982.31;;;14.46;100.00
62712;BME280;48772;55.586;37.730;2023-05-19T03:43:31;99953.53;;;14.29;100.00
62712;BME280;48772;55.586;37.730;2023-05-19T03:46:01;99984.31;;;14.44;100.00
62712;BME280;48772;55.586;37.730;2023-05-19T03:48:45;99985.72;;;14.48;100.00
62712;BME280;48772;55.586;37.730;2023-05-19T03:51:16;99977.28;;;14.43;100.00
62712;BME280;48772;55.586;37.730;2023-05-19T03:53:43;99984.88;;;14.48;100.00
62712;BME280;48772;55.586;37.730;2023-05-19T03:56:10;99982.91;;;14.40;100.00
62712;BME280;48772;55.586;37.730;2023-05-19T03:58:39;99987.56;;;14.48;100.00
62712;BME280;48772;55.586;37.730;2023-05-19T04:01:10;99990.97;;;14.59;100.00
62712;BME280;48772;55.586;37.730;2023-05-19T04:03:35;99992.38;;;14.63;100.00
62712;BME280;48772;55.586;37.730;2023-05-19T04:06:02;99995.94;;;14.64;100.00
62712;BME280;48772;55.586;37.730;2023-05-19T04:08:27;100000.16;;;14.66;100.00
62712;BME280;48772;55.586;37.730;2023-05-19T04:10:53;99998.75;;;14.72;100.00
62712;BME280;48772;55.586;37.730;2023-05-19T04:13:20;100008.09;;;14.77;100.00
62712;BME280;48772;55.586;37.730;2023-05-19T04:15:46;99989.97;;;14.70;100.00
62712;BME280;48772;55.586;37.730;2023-05-19T04:18:11;99988.56;;;14.66;100.00
62712;BME280;48772;55.586;37.730;2023-05-19T04:20:39;99997.63;;;14.74;100.00
62712;BME280;48772;55.586;37.730;2023-05-19T04:23:05;99985.19;;;14.64;100.00
62712;BME280;48772;55.586;37.730;2023-05-19T04:25:31;100005.13;;;14.71;100.00
62712;BME280;48772;55.586;37.730;2023-05-19T04:27:58;99983.91;;;14.58;100.00
62712;BME280;48772;55.586;37.730;2023-05-19T04:30:25;100000.84;;;14.68;100.00
62712;BME280;48772;55.586;37.730;2023-05-19T04:32:53;100001.56;;;14.61;100.00
62712;BME280;48772;55.586;37.730;2023-05-19T04:35:19;99998.31;;;14.57;100.00
62712;BME280;48772;55.586;37.730;2023-05-19T04:37:46;100008.63;;;14.52;100.00
62712;BME280;48772;55.586;37.730;2023-05-19T04:40:15;99995.31;;;14.41;100.00
62712;BME280;48772;55.586;37.730;2023-05-19T04:42:42;100003.78;;;14.37;100.00
62712;BME280;48772;55.586;37.730;2023-05-19T04:45:11;100001.81;;;14.29;100.00
62712;BME280;48772;55.586;37.730;2023-05-19T04:47:41;100001.09;;;14.27;100.00
62712;BME280;48772;55.586;37.730;2023-05-19T04:50:07;100011.69;;;14.38;100.00
62712;BME280;48772;55.586;37.730;2023-05-19T04:52:34;100009.88;;;14.39;100.00
62712;BME280;48772;55.586;37.730;2023-05-19T04:55:03;100015.09;;;14.40;100.00
62712;BME280;48772;55.586;37.730;2023-05-19T04:57:31;100017.94;;;14.48;100.00
62712;BME280;48772;55.586;37.730;2023-05-19T04:59:57;99980.84;;;14.14;100.00
62712;BME280;48772;55.586;37.730;2023-05-19T05:02:26;100014.78;;;14.34;100.00
62712;BME280;48772;55.586;37.730;2023-05-19T05:04:53;100009.41;;;14.24;100.00
62712;BME280;48772;55.586;37.730;2023-05-19T05:07:19;100016.78;;;14.32;100.00
62712;BME280;48772;55.586;37.730;2023-05-19T05:09:50;100025.13;;;14.38;100.00
62712;BME280;48772;55.586;37.730;2023-05-19T05:12:17;100021.00;;;14.34;100.00
62712;BME280;48772;55.586;37.730;2023-05-19T05:14:48;100038.53;;;14.38;100.00
62712;BME280;48772;55.586;37.730;2023-05-19T05:17:14;100030.34;;;14.40;100.00
62712;BME280;48772;55.586;37.730;2023-05-19T05:19:41;100041.63;;;14.34;100.00
62712;BME280;48772;55.586;37.730;2023-05-19T05:22:07;100033.16;;;14.38;100.00
62712;BME280;48772;55.586;37.730;2023-05-19T05:24:37;100030.94;;;14.43;100.00
62712;BME280;48772;55.586;37.730;2023-05-19T05:27:03;100019.16;;;14.25;100.00
62712;BME280;48772;55.586;37.730;2023-05-19T05:29:31;100042.19;;;14.28;100.00
62712;BME280;48772;55.586;37.730;2023-05-19T05:31:57;100028.97;;;14.15;100.00
62712;BME280;48772;55.586;37.730;2023-05-19T05:34:23;100035.75;;;14.19;100.00
62712;BME280;48772;55.586;37.730;2023-05-19T05:36:49;100018.47;;;14.03;100.00
62712;BME280;48772;55.586;37.730;2023-05-19T05:39:41;100049.25;;;14.29;100.00
62712;BME280;48772;55.586;37.730;2023-05-19T05:42:07;100028.63;;;13.99;100.00
62712;BME280;48772;55.586;37.730;2023-05-19T05:44:38;100055.81;;;14.15;100.00
62712;BME280;48772;55.586;37.730;2023-05-19T05:47:05;100057.34;;;14.18;100.00
62712;BME280;48772;55.586;37.730;2023-05-19T05:49:31;100060.78;;;14.20;100.00
62712;BME280;48772;55.586;37.730;2023-05-19T05:51:57;100063.84;;;14.15;100.00
62712;BME280;48772;55.586;37.730;2023-05-19T05:54:23;100066.22;;;14.09;100.00
62712;BME280;48772;55.586;37.730;2023-05-19T05:56:51;100065.09;;;14.11;100.00
62712;BME280;48772;55.586;37.730;2023-05-19T05:59:18;100064.72;;;13.95;100.00
62712;BME280;48772;55.586;37.730;2023-05-19T06:01:45;100078.00;;;13.97;100.00
62712;BME280;48772;55.586;37.730;2023-05-19T06:04:11;100071.81;;;13.96;100.00
62712;BME280;48772;55.586;37.730;2023-05-19T06:06:36;100060.63;;;13.91;100.00
62712;BME280;48772;55.586;37.730;2023-05-19T06:09:04;100043.66;;;13.81;100.00
62712;BME280;48772;55.586;37.730;2023-05-19T06:11:30;100050.81;;;13.71;100.00
62712;BME280;48772;55.586;37.730;2023-05-19T06:13:57;100074.13;;;13.80;100.00
62712;BME280;48772;55.586;37.730;2023-05-19T06:16:44;100079.03;;;13.75;100.00
62712;BME280;48772;55.586;37.730;2023-05-19T06:19:10;100085.44;;;13.84;100.00
62712;BME280;48772;55.586;37.730;2023-05-19T06:21:36;100079.81;;;13.87;100.00
62712;BME280;48772;55.586;37.730;2023-05-19T06:24:02;100079.53;;;13.90;100.00
62712;BME280;48772;55.586;37.730;2023-05-19T06:26:27;100083.78;;;13.92;100.00
62712;BME280;48772;55.586;37.730;2023-05-19T06:28:53;100074.19;;;13.99;100.00
62712;BME280;48772;55.586;37.730;2023-05-19T06:31:19;100079.34;;;14.12;100.00
62712;BME280;48772;55.586;37.730;2023-05-19T06:33:51;100083.63;;;14.14;100.00
62712;BME280;48772;55.586;37.730;2023-05-19T06:36:19;100077.94;;;14.17;100.00
62712;BME280;48772;55.586;37.730;2023-05-19T06:38:46;100080.72;;;14.06;100.00
62712;BME280;48772;55.586;37.730;2023-05-19T06:41:12;100059.66;;;13.92;100.00
62712;BME280;48772;55.586;37.730;2023-05-19T06:43:38;100085.00;;;14.09;100.00
62712;BME280;48772;55.586;37.730;2023-05-19T06:46:03;100090.41;;;14.18;100.00
62712;BME280;48772;55.586;37.730;2023-05-19T06:48:32;100075.09;;;14.09;100.00
62712;BME280;48772;55.586;37.730;2023-05-19T06:50:58;100092.91;;;14.10;100.00
62712;BME280;48772;55.586;37.730;2023-05-19T06:53:25;100098.97;;;14.12;100.00
62712;BME280;48772;55.586;37.730;2023-05-19T06:55:52;100089.63;;;14.07;100.00
62712;BME280;48772;55.586;37.730;2023-05-19T06:58:21;100061.75;;;13.89;100.00
62712;BME280;48772;55.586;37.730;2023-05-19T07:00:47;100090.25;;;14.10;100.00
62712;BME280;48772;55.586;37.730;2023-05-19T07:03:15;100093.22;;;14.17;100.00
62712;BME280;48772;55.586;37.730;2023-05-19T07:05:41;100094.78;;;14.19;100.00
62712;BME280;48772;55.586;37.730;2023-05-19T07:08:07;100090.13;;;14.21;100.00
62712;BME280;48772;55.586;37.730;2023-05-19T07:10:34;100095.03;;;14.46;100.00
62712;BME280;48772;55.586;37.730;2023-05-19T07:13:01;100074.13;;;14.40;100.00
62712;BME280;48772;55.586;37.730;2023-05-19T07:15:30;100084.06;;;14.59;100.00
62712;BME280;48772;55.586;37.730;2023-05-19T07:17:57;100085.50;;;14.72;100.00
62712;BME280;48772;55.586;37.730;2023-05-19T07:20:24;100077.59;;;14.71;100.00
62712;BME280;48772;55.586;37.730;2023-05-19T07:22:50;100100.25;;;14.87;100.00
62712;BME280;48772;55.586;37.730;2023-05-19T07:25:16;100100.91;;;14.80;100.00
62712;BME280;48772;55.586;37.730;2023-05-19T07:27:45;100079.03;;;14.75;100.00
62712;BME280;48772;55.586;37.730;2023-05-19T07:30:11;100099.66;;;14.93;100.00
62712;BME280;48772;55.586;37.730;2023-05-19T07:32:37;100087.22;;;14.92;100.00
62712;BME280;48772;55.586;37.730;2023-05-19T07:35:04;100076.22;;;14.95;100.00
62712;BME280;48772;55.586;37.730;2023-05-19T07:37:31;100103.78;;;15.16;100.00
62712;BME280;48772;55.586;37.730;2023-05-19T07:39:57;100109.31;;;15.15;100.00
62712;BME280;48772;55.586;37.730;2023-05-19T07:42:23;100099.53;;;15.23;100.00
62712;BME280;48772;55.586;37.730;2023-05-19T07:44:49;100105.38;;;15.38;100.00
62712;BME280;48772;55.586;37.730;2023-05-19T07:47:15;100101.53;;;15.50;100.00
62712;BME280;48772;55.586;37.730;2023-05-19T07:49:40;100101.38;;;15.61;100.00
62712;BME280;48772;55.586;37.730;2023-05-19T07:52:06;100076.53;;;15.49;100.00
62712;BME280;48772;55.586;37.730;2023-05-19T07:54:32;100074.75;;;15.67;100.00
62712;BME280;48772;55.586;37.730;2023-05-19T07:56:57;100089.31;;;15.74;100.00
62712;BME280;48772;55.586;37.730;2023-05-19T07:59:23;100082.38;;;15.81;100.00
62712;BME280;48772;55.586;37.730;2023-05-19T08:01:49;100095.28;;;15.78;100.00
62712;BME280;48772;55.586;37.730;2023-05-19T08:04:15;100088.19;;;15.86;100.00
62712;BME280;48772;55.586;37.730;2023-05-19T08:06:41;100079.69;;;15.81;100.00
62712;BME280;48772;55.586;37.730;2023-05-19T08:09:09;100084.09;;;15.82;100.00
62712;BME280;48772;55.586;37.730;2023-05-19T08:11:35;100088.72;;;15.90;100.00
62712;BME280;48772;55.586;37.730;2023-05-19T08:14:01;100103.44;;;15.95;100.00
62712;BME280;48772;55.586;37.730;2023-05-19T08:16:27;100101.16;;;16.00;100.00
62712;BME280;48772;55.586;37.730;2023-05-19T08:18:53;100076.97;;;15.91;100.00
62712;BME280;48772;55.586;37.730;2023-05-19T08:21:20;100097.53;;;15.82;100.00
62712;BME280;48772;55.586;37.730;2023-05-19T08:23:46;100093.09;;;15.91;100.00
62712;BME280;48772;55.586;37.730;2023-05-19T08:26:12;100080.78;;;15.98;100.00
62712;BME280;48772;55.586;37.730;2023-05-19T08:28:38;100079.16;;;16.14;100.00
62712;BME280;48772;55.586;37.730;2023-05-19T08:31:04;100089.59;;;16.27;100.00
62712;BME280;48772;55.586;37.730;2023-05-19T08:33:30;100076.03;;;16.19;100.00
62712;BME280;48772;55.586;37.730;2023-05-19T08:35:56;100071.03;;;16.24;100.00
62712;BME280;48772;55.586;37.730;2023-05-19T08:38:24;100099.75;;;16.42;100.00
62712;BME280;48772;55.586;37.730;2023-05-19T08:40:56;100090.31;;;16.56;100.00
62712;BME280;48772;55.586;37.730;2023-05-19T08:43:23;100096.16;;;16.79;100.00
62712;BME280;48772;55.586;37.730;2023-05-19T08:45:49;100084.63;;;17.04;100.00
62712;BME280;48772;55.586;37.730;2023-05-19T08:48:16;100084.69;;;17.29;100.00
62712;BME280;48772;55.586;37.730;2023-05-19T08:50:53;100096.19;;;17.49;100.00
62712;BME280;48772;55.586;37.730;2023-05-19T08:53:33;100079.41;;;17.55;100.00
62712;BME280;48772;55.586;37.730;2023-05-19T08:56:07;100076.16;;;17.51;100.00
62712;BME280;48772;55.586;37.730;2023-05-19T08:58:38;100079.94;;;17.84;100.00
62712;BME280;48772;55.586;37.730;2023-05-19T09:01:09;100075.28;;;17.94;100.00
62712;BME280;48772;55.586;37.730;2023-05-19T09:03:38;100042.75;;;17.95;100.00
62712;BME280;48772;55.586;37.730;2023-05-19T09:06:06;100065.25;;;18.12;100.00
62712;BME280;48772;55.586;37.730;2023-05-19T09:08:37;100068.13;;;18.10;100.00
62712;BME280;48772;55.586;37.730;2023-05-19T09:11:03;100077.38;;;18.33;100.00
62712;BME280;48772;55.586;37.730;2023-05-19T09:13:29;100061.41;;;18.48;100.00
62712;BME280;48772;55.586;37.730;2023-05-19T09:15:56;100075.38;;;18.77;100.00
62712;BME280;48772;55.586;37.730;2023-05-19T09:18:26;100075.41;;;19.01;100.00
62712;BME280;48772;55.586;37.730;2023-05-19T09:20:56;100071.72;;;19.18;100.00
62712;BME280;48772;55.586;37.730;2023-05-19T09:23:26;100071.72;;;19.10;100.00
62712;BME280;48772;55.586;37.730;2023-05-19T09:25:53;100061.59;;;19.20;100.00
62712;BME280;48772;55.586;37.730;2023-05-19T09:28:26;100042.81;;;19.83;99.48
62712;BME280;48772;55.586;37.730;2023-05-19T09:31:07;100060.06;;;20.52;92.90
62712;BME280;48772;55.586;37.730;2023-05-19T09:33:35;100052.28;;;20.80;75.83
62712;BME280;48772;55.586;37.730;2023-05-19T09:36:02;100058.19;;;20.83;71.16
62712;BME280;48772;55.586;37.730;2023-05-19T09:38:31;100037.44;;;20.98;70.63
62712;BME280;48772;55.586;37.730;2023-05-19T09:40:59;100036.44;;;21.44;68.68
62712;BME280;48772;55.586;37.730;2023-05-19T09:43:32;100048.25;;;21.51;62.93
62712;BME280;48772;55.586;37.730;2023-05-19T09:46:07;100051.56;;;21.61;64.64
62712;BME280;48772;55.586;37.730;2023-05-19T09:48:35;100049.75;;;21.76;62.79
62712;BME280;48772;55.586;37.730;2023-05-19T09:51:03;100051.78;;;21.52;62.96
62712;BME280;48772;55.586;37.730;2023-05-19T09:53:29;100044.31;;;21.31;62.07
62712;BME280;48772;55.586;37.730;2023-05-19T09:55:57;100051.22;;;21.19;62.98
62712;BME280;48772;55.586;37.730;2023-05-19T09:58:23;100056.94;;;21.02;62.46
62712;BME280;48772;55.586;37.730;2023-05-19T10:00:49;100044.75;;;21.20;61.56
62712;BME280;48772;55.586;37.730;2023-05-19T10:03:16;100062.03;;;21.64;61.57
62712;BME280;48772;55.586;37.730;2023-05-19T10:05:43;100045.63;;;21.80;60.52
62712;BME280;48772;55.586;37.730;2023-05-19T10:08:10;100019.91;;;21.68;60.33
62712;BME280;48772;55.586;37.730;2023-05-19T10:10:37;100044.78;;;21.80;59.52
62712;BME280;48772;55.586;37.730;2023-05-19T10:13:04;100029.88;;;21.76;57.52
62712;BME280;48772;55.586;37.730;2023-05-19T10:15:31;100036.34;;;21.75;57.15
62712;BME280;48772;55.586;37.730;2023-05-19T10:17:58;100032.13;;;21.72;55.94
62712;BME280;48772;55.586;37.730;2023-05-19T10:20:25;100042.47;;;21.91;55.27
62712;BME280;48772;55.586;37.730;2023-05-19T10:22:52;100029.59;;;21.85;53.29
62712;BME280;48772;55.586;37.730;2023-05-19T10:25:17;100047.53;;;21.94;52.75
62712;BME280;48772;55.586;37.730;2023-05-19T10:27:58;100023.22;;;21.78;52.07
62712;BME280;48772;55.586;37.730;2023-05-19T10:30:28;100035.22;;;21.84;52.06
62712;BME280;48772;55.586;37.730;2023-05-19T10:32:58;100034.41;;;21.83;51.55
62712;BME280;48772;55.586;37.730;2023-05-19T10:38:51;100043.94;;;21.94;52.17
62712;BME280;48772;55.586;37.730;2023-05-19T10:41:29;100039.06;;;21.89;52.16
62712;BME280;48772;55.586;37.730;2023-05-19T10:44:20;100038.78;;;21.84;50.43
62712;BME280;48772;55.586;37.730;2023-05-19T10:46:47;100028.41;;;22.02;51.97
62712;BME280;48772;55.586;37.730;2023-05-19T10:49:20;100036.94;;;21.99;51.32
62712;BME280;48772;55.586;37.730;2023-05-19T10:51:51;100036.25;;;21.97;51.53
62712;BME280;48772;55.586;37.730;2023-05-19T10:54:38;100026.91;;;21.85;50.23
62712;BME280;48772;55.586;37.730;2023-05-19T10:57:05;100033.09;;;21.79;52.14
62712;BME280;48772;55.586;37.730;2023-05-19T10:59:34;100023.06;;;21.57;51.08
62712;BME280;48772;55.586;37.730;2023-05-19T11:02:06;100032.75;;;21.37;51.20
62712;BME280;48772;55.586;37.730;2023-05-19T11:07:17;100031.25;;;21.12;50.54
62712;BME280;48772;55.586;37.730;2023-05-19T11:09:53;100022.94;;;20.83;53.05
62712;BME280;48772;55.586;37.730;2023-05-19T11:12:22;100035.88;;;21.04;52.78
62712;BME280;48772;55.586;37.730;2023-05-19T11:14:53;100027.75;;;21.26;53.13
62712;BME280;48772;55.586;37.730;2023-05-19T11:17:19;100014.66;;;21.30;51.67
62712;BME280;48772;55.586;37.730;2023-05-19T11:19:53;100031.06;;;21.36;51.52
62712;BME280;48772;55.586;37.730;2023-05-19T11:22:24;100029.25;;;21.29;50.99
62712;BME280;48772;55.586;37.730;2023-05-19T11:24:50;100021.53;;;21.40;50.56
62712;BME280;48772;55.586;37.730;2023-05-19T11:29:48;100028.53;;;21.12;49.91
62712;BME280;48772;55.586;37.730;2023-05-19T11:32:14;100027.22;;;21.08;49.71
62712;BME280;48772;55.586;37.730;2023-05-19T11:34:40;100031.44;;;21.11;49.85
62712;BME280;48772;55.586;37.730;2023-05-19T11:37:07;100015.75;;;20.98;50.20
62712;BME280;48772;55.586;37.730;2023-05-19T11:39:34;100014.06;;;20.97;49.32
62712;BME280;48772;55.586;37.730;2023-05-19T11:42:00;100037.59;;;21.05;49.15
62712;BME280;48772;55.586;37.730;2023-05-19T11:44:26;100021.91;;;20.92;48.99
62712;BME280;48772;55.586;37.730;2023-05-19T11:46:52;100029.13;;;21.00;50.52
62712;BME280;48772;55.586;37.730;2023-05-19T11:49:18;100034.72;;;21.06;49.63
62712;BME280;48772;55.586;37.730;2023-05-19T11:51:45;100032.19;;;21.05;48.94
62712;BME280;48772;55.586;37.730;2023-05-19T11:54:11;100027.94;;;21.02;49.70
62712;BME280;48772;55.586;37.730;2023-05-19T11:56:41;100026.75;;;21.05;50.58
62712;BME280;48772;55.586;37.730;2023-05-19T11:59:10;100026.69;;;20.82;50.02
62712;BME280;48772;55.586;37.730;2023-05-19T12:01:36;100038.13;;;20.70;49.81
62712;BME280;48772;55.586;37.730;2023-05-19T12:04:06;100036.09;;;20.64;49.15
62712;BME280;48772;55.586;37.730;2023-05-19T12:06:33;100036.44;;;20.69;48.62
62712;BME280;48772;55.586;37.730;2023-05-19T12:08:59;100039.50;;;20.66;49.76
62712;BME280;48772;55.586;37.730;2023-05-19T12:11:27;100033.84;;;20.75;50.33
62712;BME280;48772;55.586;37.730;2023-05-19T12:14:00;100033.78;;;20.83;48.84
62712;BME280;48772;55.586;37.730;2023-05-19T12:16:35;100016.25;;;20.71;49.07
62712;BME280;48772;55.586;37.730;2023-05-19T12:19:04;100020.53;;;20.66;48.75
62712;BME280;48772;55.586;37.730;2023-05-19T12:21:30;100013.72;;;20.70;49.55
62712;BME280;48772;55.586;37.730;2023-05-19T12:23:58;100039.72;;;20.87;49.22
62712;BME280;48772;55.586;37.730;2023-05-19T12:26:24;100031.72;;;20.93;50.13
62712;BME280;48772;55.586;37.730;2023-05-19T12:28:50;100036.50;;;20.83;50.10
62712;BME280;48772;55.586;37.730;2023-05-19T12:31:17;100036.09;;;20.64;49.79
62712;BME280;48772;55.586;37.730;2023-05-19T12:33:47;100036.97;;;20.64;50.31
62712;BME280;48772;55.586;37.730;2023-05-19T12:36:13;100034.94;;;20.66;50.05
62712;BME280;48772;55.586;37.730;2023-05-19T12:38:40;100040.03;;;20.61;49.40
62712;BME280;48772;55.586;37.730;2023-05-19T12:41:06;100037.88;;;20.49;49.05
62712;BME280;48772;55.586;37.730;2023-05-19T12:43:35;100018.09;;;20.40;48.67
62712;BME280;48772;55.586;37.730;2023-05-19T12:46:11;100017.50;;;20.30;48.55
62712;BME280;48772;55.586;37.730;2023-05-19T12:48:43;100045.22;;;20.32;47.48
62712;BME280;48772;55.586;37.730;2023-05-19T12:51:19;100049.66;;;20.33;47.90
62712;BME280;48772;55.586;37.730;2023-05-19T12:53:45;100045.56;;;20.29;48.17
62712;BME280;48772;55.586;37.730;2023-05-19T12:56:13;100042.47;;;20.48;48.54
62712;BME280;48772;55.586;37.730;2023-05-19T12:58:43;100049.53;;;20.57;46.31
62712;BME280;48772;55.586;37.730;2023-05-19T13:01:17;100041.34;;;20.65;47.50